sensor_id;sensor_type;location;lat;lon;timestamp;P1;durP1;ratioP1;P2;durP2;ratioP2
10469;SDS011;5282;47.052;15.458;2024-03-02T00:01:34;52.07;;;29.67;;
10469;SDS011;5282;47.052;15.458;2024-03-02T00:04:18;51.40;;;30.53;;
10469;SDS011;5282;47.052;15.458;2024-03-02T00:06:45;51.97;;;31.23;;
10469;SDS011;5282;47.052;15.458;2024-03-02T00:09:13;50.60;;;30.27;;
10469;SDS011;5282;47.052;15.458;2024-03-02T00:11:41;50.03;;;30.43;;
10469;SDS011;5282;47.052;15.458;2024-03-02T00:14:10;50.40;;;30.50;;
10469;SDS011;5282;47.052;15.458;2024-03-02T00:16:38;48.70;;;30.43;;
10469;SDS011;5282;47.052;15.458;2024-03-02T00:19:06;50.53;;;29.30;;
10469;SDS011;5282;47.052;15.458;2024-03-02T00:21:33;45.60;;;27.93;;
10469;SDS011;5282;47.052;15.458;2024-03-02T00:24:01;48.10;;;30.53;;
10469;SDS011;5282;47.052;15.458;2024-03-02T00:26:45;55.40;;;29.73;;
10469;SDS011;5282;47.052;15.458;2024-03-02T00:29:14;50.93;;;29.93;;
10469;SDS011;5282;47.052;15.458;2024-03-02T00:31:45;49.67;;;29.80;;
10469;SDS011;5282;47.052;15.458;2024-03-02T00:34:20;46.87;;;29.67;;
10469;SDS011;5282;47.052;15.458;2024-03-02T00:36:49;48.87;;;28.17;;
10469;SDS011;5282;47.052;15.458;2024-03-02T00:39:17;49.70;;;28.70;;
10469;SDS011;5282;47.052;15.458;2024-03-02T00:41:44;47.50;;;29.77;;
10469;SDS011;5282;47.052;15.458;2024-03-02T00:44:12;46.77;;;29.83;;
10469;SDS011;5282;47.052;15.458;2024-03-02T00:46:41;49.00;;;29.23;;
10469;SDS011;5282;47.052;15.458;2024-03-02T00:49:11;50.00;;;29.37;;
10469;SDS011;5282;47.052;15.458;2024-03-02T00:51:45;47.23;;;28.83;;
10469;SDS011;5282;47.052;15.458;2024-03-02T00:54:14;48.17;;;29.50;;
10469;SDS011;5282;47.052;15.458;2024-03-02T00:56:45;48.27;;;27.87;;
10469;SDS011;5282;47.052;15.458;2024-03-02T00:59:14;47.07;;;27.97;;
10469;SDS011;5282;47.052;15.458;2024-03-02T01:01:43;47.20;;;28.20;;
10469;SDS011;5282;47.052;15.458;2024-03-02T01:04:11;47.20;;;27.33;;
10469;SDS011;5282;47.052;15.458;2024-03-02T01:06:41;45.53;;;27.43;;
10469;SDS011;5282;47.052;15.458;2024-03-02T01:09:09;46.20;;;28.37;;
10469;SDS011;5282;47.052;15.458;2024-03-02T01:11:40;45.17;;;27.67;;
10469;SDS011;5282;47.052;15.458;2024-03-02T01:14:11;41.57;;;26.97;;
10469;SDS011;5282;47.052;15.458;2024-03-02T01:16:59;44.60;;;27.87;;
10469;SDS011;5282;47.052;15.458;2024-03-02T01:19:48;43.77;;;26.37;;
10469;SDS011;5282;47.052;15.458;2024-03-02T01:22:24;42.00;;;27.43;;
10469;SDS011;5282;47.052;15.458;2024-03-02T01:24:54;44.13;;;28.40;;
10469;SDS011;5282;47.052;15.458;2024-03-02T01:27:27;46.93;;;27.40;;
10469;SDS011;5282;47.052;15.458;2024-03-02T01:29:55;42.37;;;26.93;;
10469;SDS011;5282;47.052;15.458;2024-03-02T01:32:29;44.50;;;27.23;;
10469;SDS011;5282;47.052;15.458;2024-03-02T01:34:56;48.23;;;27.23;;
10469;SDS011;5282;47.052;15.458;2024-03-02T01:37:41;46.63;;;28.03;;
10469;SDS011;5282;47.052;15.458;2024-03-02T01:40:10;44.27;;;27.27;;
10469;SDS011;5282;47.052;15.458;2024-03-02T01:42:40;42.53;;;27.03;;
10469;SDS011;5282;47.052;15.458;2024-03-02T01:45:13;42.73;;;25.60;;
10469;SDS011;5282;47.052;15.458;2024-03-02T01:47:43;45.43;;;27.50;;
10469;SDS011;5282;47.052;15.458;2024-03-02T01:50:10;44.83;;;27.63;;
10469;SDS011;5282;47.052;15.458;2024-03-02T01:52:39;43.20;;;26.90;;
10469;SDS011;5282;47.052;15.458;2024-03-02T01:55:06;43.97;;;26.40;;
10469;SDS011;5282;47.052;15.458;2024-03-02T01:57:39;42.23;;;27.07;;
10469;SDS011;5282;47.052;15.458;2024-03-02T02:00:07;45.80;;;26.93;;
10469;SDS011;5282;47.052;15.458;2024-03-02T02:02:40;40.03;;;24.17;;
10469;SDS011;5282;47.052;15.458;2024-03-02T02:05:09;41.93;;;24.73;;
10469;SDS011;5282;47.052;15.458;2024-03-02T02:07:36;41.97;;;25.00;;
10469;SDS011;5282;47.052;15.458;2024-03-02T02:10:04;39.10;;;24.87;;
10469;SDS011;5282;47.052;15.458;2024-03-02T02:12:33;41.43;;;24.50;;
10469;SDS011;5282;47.052;15.458;2024-03-02T02:15:00;41.47;;;24.17;;
10469;SDS011;5282;47.052;15.458;2024-03-02T02:17:29;42.53;;;25.13;;
10469;SDS011;5282;47.052;15.458;2024-03-02T02:19:56;37.43;;;24.20;;
10469;SDS011;5282;47.052;15.458;2024-03-02T02:22:24;41.20;;;25.53;;
10469;SDS011;5282;47.052;15.458;2024-03-02T02:24:51;37.50;;;24.73;;
10469;SDS011;5282;47.052;15.458;2024-03-02T02:27:25;43.73;;;25.40;;
10469;SDS011;5282;47.052;15.458;2024-03-02T02:29:52;38.97;;;24.93;;
10469;SDS011;5282;47.052;15.458;2024-03-02T02:32:22;42.97;;;25.10;;
10469;SDS011;5282;47.052;15.458;2024-03-02T02:34:51;41.20;;;25.93;;
10469;SDS011;5282;47.052;15.458;2024-03-02T02:37:25;38.93;;;25.07;;
10469;SDS011;5282;47.052;15.458;2024-03-02T02:39:52;41.63;;;25.07;;
10469;SDS011;5282;47.052;15.458;2024-03-02T02:42:19;35.40;;;23.83;;
10469;SDS011;5282;47.052;15.458;2024-03-02T02:44:46;38.13;;;23.80;;
10469;SDS011;5282;47.052;15.458;2024-03-02T02:47:13;37.13;;;22.97;;
10469;SDS011;5282;47.052;15.458;2024-03-02T02:49:40;39.77;;;23.40;;
10469;SDS011;5282;47.052;15.458;2024-03-02T02:52:07;38.57;;;24.77;;
10469;SDS011;5282;47.052;15.458;2024-03-02T02:54:38;37.37;;;23.30;;
10469;SDS011;5282;47.052;15.458;2024-03-02T02:57:05;38.30;;;23.33;;
10469;SDS011;5282;47.052;15.458;2024-03-02T02:59:33;37.03;;;22.50;;
10469;SDS011;5282;47.052;15.458;2024-03-02T03:02:02;40.70;;;22.23;;
10469;SDS011;5282;47.052;15.458;2024-03-02T03:04:29;39.50;;;23.23;;
10469;SDS011;5282;47.052;15.458;2024-03-02T03:06:56;40.30;;;24.20;;
10469;SDS011;5282;47.052;15.458;2024-03-02T03:09:24;38.60;;;22.37;;
10469;SDS011;5282;47.052;15.458;2024-03-02T03:11:54;36.40;;;21.50;;
10469;SDS011;5282;47.052;15.458;2024-03-02T03:14:32;40.43;;;24.30;;
10469;SDS011;5282;47.052;15.458;2024-03-02T03:17:07;38.93;;;23.87;;
10469;SDS011;5282;47.052;15.458;2024-03-02T03:19:38;36.27;;;22.03;;
10469;SDS011;5282;47.052;15.458;2024-03-02T03:22:08;38.87;;;23.93;;
10469;SDS011;5282;47.052;15.458;2024-03-02T03:24:35;38.27;;;23.67;;
10469;SDS011;5282;47.052;15.458;2024-03-02T03:27:03;36.83;;;22.20;;
10469;SDS011;5282;47.052;15.458;2024-03-02T03:29:32;41.33;;;23.50;;
10469;SDS011;5282;47.052;15.458;2024-03-02T03:32:01;38.27;;;22.87;;
10469;SDS011;5282;47.052;15.458;2024-03-02T03:34:36;37.60;;;24.00;;
10469;SDS011;5282;47.052;15.458;2024-03-02T03:37:03;38.20;;;23.30;;
10469;SDS011;5282;47.052;15.458;2024-03-02T03:39:33;37.27;;;22.80;;
10469;SDS011;5282;47.052;15.458;2024-03-02T03:42:00;36.23;;;22.47;;
10469;SDS011;5282;47.052;15.458;2024-03-02T03:44:30;36.03;;;22.83;;
10469;SDS011;5282;47.052;15.458;2024-03-02T03:46:57;38.60;;;22.27;;
10469;SDS011;5282;47.052;15.458;2024-03-02T03:49:40;38.87;;;22.97;;
10469;SDS011;5282;47.052;15.458;2024-03-02T03:52:07;38.23;;;23.00;;
10469;SDS011;5282;47.052;15.458;2024-03-02T03:54:34;39.23;;;23.07;;
10469;SDS011;5282;47.052;15.458;2024-03-02T03:57:02;38.90;;;23.73;;
10469;SDS011;5282;47.052;15.458;2024-03-02T03:59:33;37.70;;;23.03;;
10469;SDS011;5282;47.052;15.458;2024-03-02T04:02:03;36.47;;;22.37;;
10469;SDS011;5282;47.052;15.458;2024-03-02T04:04:31;34.57;;;23.17;;
10469;SDS011;5282;47.052;15.458;2024-03-02T04:07:00;36.40;;;22.73;;
10469;SDS011;5282;47.052;15.458;2024-03-02T04:09:28;36.10;;;22.77;;
10469;SDS011;5282;47.052;15.458;2024-03-02T04:11:55;34.43;;;21.70;;
10469;SDS011;5282;47.052;15.458;2024-03-02T04:14:23;38.07;;;22.07;;
10469;SDS011;5282;47.052;15.458;2024-03-02T04:16:51;36.27;;;22.70;;
10469;SDS011;5282;47.052;15.458;2024-03-02T04:19:28;34.83;;;21.83;;
10469;SDS011;5282;47.052;15.458;2024-03-02T04:21:55;33.03;;;21.10;;
10469;SDS011;5282;47.052;15.458;2024-03-02T04:24:23;37.10;;;22.73;;
10469;SDS011;5282;47.052;15.458;2024-03-02T04:26:50;38.83;;;22.70;;
10469;SDS011;5282;47.052;15.458;2024-03-02T04:29:18;34.80;;;21.40;;
10469;SDS011;5282;47.052;15.458;2024-03-02T04:32:06;32.47;;;20.30;;
10469;SDS011;5282;47.052;15.458;2024-03-02T04:34:53;38.53;;;21.87;;
10469;SDS011;5282;47.052;15.458;2024-03-02T04:37:20;35.80;;;21.30;;
10469;SDS011;5282;47.052;15.458;2024-03-02T04:39:48;32.67;;;20.20;;
10469;SDS011;5282;47.052;15.458;2024-03-02T04:42:15;31.93;;;21.13;;
10469;SDS011;5282;47.052;15.458;2024-03-02T04:44:43;34.70;;;21.00;;
10469;SDS011;5282;47.052;15.458;2024-03-02T04:47:19;35.43;;;22.30;;
10469;SDS011;5282;47.052;15.458;2024-03-02T04:49:52;33.37;;;21.43;;
10469;SDS011;5282;47.052;15.458;2024-03-02T04:52:22;35.40;;;21.53;;
10469;SDS011;5282;47.052;15.458;2024-03-02T04:54:51;33.97;;;21.60;;
10469;SDS011;5282;47.052;15.458;2024-03-02T04:57:43;37.13;;;22.03;;
10469;SDS011;5282;47.052;15.458;2024-03-02T05:00:18;30.43;;;20.60;;
10469;SDS011;5282;47.052;15.458;2024-03-02T05:02:47;33.57;;;21.33;;
10469;SDS011;5282;47.052;15.458;2024-03-02T05:05:16;32.93;;;20.27;;
10469;SDS011;5282;47.052;15.458;2024-03-02T05:07:45;33.77;;;21.17;;
10469;SDS011;5282;47.052;15.458;2024-03-02T05:10:14;32.87;;;20.27;;
10469;SDS011;5282;47.052;15.458;2024-03-02T05:12:47;31.00;;;20.53;;
10469;SDS011;5282;47.052;15.458;2024-03-02T05:15:25;32.57;;;20.60;;
10469;SDS011;5282;47.052;15.458;2024-03-02T05:17:55;35.27;;;20.77;;
10469;SDS011;5282;47.052;15.458;2024-03-02T05:20:44;34.90;;;20.63;;
10469;SDS011;5282;47.052;15.458;2024-03-02T05:23:19;35.20;;;21.10;;
10469;SDS011;5282;47.052;15.458;2024-03-02T05:25:47;33.60;;;20.77;;
10469;SDS011;5282;47.052;15.458;2024-03-02T05:28:36;32.40;;;20.23;;
10469;SDS011;5282;47.052;15.458;2024-03-02T05:31:03;34.03;;;21.00;;
10469;SDS011;5282;47.052;15.458;2024-03-02T05:33:32;37.10;;;20.10;;
10469;SDS011;5282;47.052;15.458;2024-03-02T05:35:59;33.80;;;19.87;;
10469;SDS011;5282;47.052;15.458;2024-03-02T05:38:44;32.90;;;20.43;;
10469;SDS011;5282;47.052;15.458;2024-03-02T05:41:12;33.67;;;20.27;;
10469;SDS011;5282;47.052;15.458;2024-03-02T05:43:42;33.40;;;20.13;;
10469;SDS011;5282;47.052;15.458;2024-03-02T05:46:13;33.90;;;19.57;;
10469;SDS011;5282;47.052;15.458;2024-03-02T05:49:01;29.53;;;19.03;;
10469;SDS011;5282;47.052;15.458;2024-03-02T05:51:38;31.13;;;19.33;;
10469;SDS011;5282;47.052;15.458;2024-03-02T05:54:06;29.90;;;18.50;;
10469;SDS011;5282;47.052;15.458;2024-03-02T05:56:33;32.83;;;20.17;;
10469;SDS011;5282;47.052;15.458;2024-03-02T05:59:00;30.97;;;18.23;;
10469;SDS011;5282;47.052;15.458;2024-03-02T06:01:37;30.53;;;18.63;;
10469;SDS011;5282;47.052;15.458;2024-03-02T06:04:09;26.47;;;17.60;;
10469;SDS011;5282;47.052;15.458;2024-03-02T06:06:38;30.83;;;18.80;;
10469;SDS011;5282;47.052;15.458;2024-03-02T06:09:07;29.13;;;18.13;;
10469;SDS011;5282;47.052;15.458;2024-03-02T06:11:38;29.70;;;17.57;;
10469;SDS011;5282;47.052;15.458;2024-03-02T06:14:08;31.17;;;18.90;;
10469;SDS011;5282;47.052;15.458;2024-03-02T06:16:36;26.80;;;17.67;;
10469;SDS011;5282;47.052;15.458;2024-03-02T06:19:04;28.63;;;18.67;;
10469;SDS011;5282;47.052;15.458;2024-03-02T06:21:33;26.70;;;18.03;;
10469;SDS011;5282;47.052;15.458;2024-03-02T06:24:01;29.67;;;18.83;;
10469;SDS011;5282;47.052;15.458;2024-03-02T06:26:28;33.67;;;19.40;;
10469;SDS011;5282;47.052;15.458;2024-03-02T06:28:57;30.60;;;19.03;;
10469;SDS011;5282;47.052;15.458;2024-03-02T06:31:23;30.17;;;17.90;;
10469;SDS011;5282;47.052;15.458;2024-03-02T06:33:50;25.93;;;16.73;;
10469;SDS011;5282;47.052;15.458;2024-03-02T06:36:17;28.00;;;17.80;;
10469;SDS011;5282;47.052;15.458;2024-03-02T06:38:45;32.77;;;18.30;;
10469;SDS011;5282;47.052;15.458;2024-03-02T06:41:12;29.27;;;18.63;;
10469;SDS011;5282;47.052;15.458;2024-03-02T06:43:39;25.53;;;17.93;;
10469;SDS011;5282;47.052;15.458;2024-03-02T06:46:06;29.93;;;18.20;;
10469;SDS011;5282;47.052;15.458;2024-03-02T06:48:34;27.30;;;18.53;;
10469;SDS011;5282;47.052;15.458;2024-03-02T06:51:01;26.67;;;18.20;;
10469;SDS011;5282;47.052;15.458;2024-03-02T06:53:28;27.73;;;18.03;;
10469;SDS011;5282;47.052;15.458;2024-03-02T06:55:58;31.10;;;18.83;;
10469;SDS011;5282;47.052;15.458;2024-03-02T06:58:25;29.37;;;17.80;;
10469;SDS011;5282;47.052;15.458;2024-03-02T07:00:52;24.87;;;17.03;;
10469;SDS011;5282;47.052;15.458;2024-03-02T07:03:19;28.70;;;17.83;;
10469;SDS011;5282;47.052;15.458;2024-03-02T07:05:46;28.60;;;17.17;;
10469;SDS011;5282;47.052;15.458;2024-03-02T07:08:13;24.13;;;17.03;;
10469;SDS011;5282;47.052;15.458;2024-03-02T07:10:40;27.27;;;17.93;;
10469;SDS011;5282;47.052;15.458;2024-03-02T07:13:08;26.40;;;17.60;;
10469;SDS011;5282;47.052;15.458;2024-03-02T07:15:35;30.40;;;20.17;;
10469;SDS011;5282;47.052;15.458;2024-03-02T07:18:25;30.73;;;19.23;;
10469;SDS011;5282;47.052;15.458;2024-03-02T07:20:51;30.27;;;18.43;;
10469;SDS011;5282;47.052;15.458;2024-03-02T07:23:43;31.43;;;18.80;;
10469;SDS011;5282;47.052;15.458;2024-03-02T07:26:12;32.50;;;19.37;;
10469;SDS011;5282;47.052;15.458;2024-03-02T07:28:41;33.80;;;19.27;;
10469;SDS011;5282;47.052;15.458;2024-03-02T07:31:10;31.60;;;19.40;;
10469;SDS011;5282;47.052;15.458;2024-03-02T07:33:37;30.57;;;19.60;;
10469;SDS011;5282;47.052;15.458;2024-03-02T07:36:29;28.43;;;19.27;;
10469;SDS011;5282;47.052;15.458;2024-03-02T07:38:56;31.73;;;18.70;;
10469;SDS011;5282;47.052;15.458;2024-03-02T07:41:49;27.77;;;18.90;;
10469;SDS011;5282;47.052;15.458;2024-03-02T07:44:17;32.93;;;19.23;;
10469;SDS011;5282;47.052;15.458;2024-03-02T07:46:44;30.13;;;19.50;;
10469;SDS011;5282;47.052;15.458;2024-03-02T07:49:12;26.37;;;18.53;;
10469;SDS011;5282;47.052;15.458;2024-03-02T07:51:39;26.03;;;17.47;;
10469;SDS011;5282;47.052;15.458;2024-03-02T07:54:06;29.17;;;18.20;;
10469;SDS011;5282;47.052;15.458;2024-03-02T07:56:33;29.93;;;18.43;;
10469;SDS011;5282;47.052;15.458;2024-03-02T07:59:01;25.93;;;17.87;;
10469;SDS011;5282;47.052;15.458;2024-03-02T08:01:30;30.10;;;19.10;;
10469;SDS011;5282;47.052;15.458;2024-03-02T08:03:58;26.37;;;18.23;;
10469;SDS011;5282;47.052;15.458;2024-03-02T08:06:26;28.50;;;18.60;;
10469;SDS011;5282;47.052;15.458;2024-03-02T08:08:54;27.03;;;18.30;;
10469;SDS011;5282;47.052;15.458;2024-03-02T08:11:22;27.47;;;18.73;;
10469;SDS011;5282;47.052;15.458;2024-03-02T08:13:49;30.60;;;18.53;;
10469;SDS011;5282;47.052;15.458;2024-03-02T08:16:17;29.83;;;18.77;;
10469;SDS011;5282;47.052;15.458;2024-03-02T08:18:46;25.67;;;18.90;;
10469;SDS011;5282;47.052;15.458;2024-03-02T08:21:14;25.57;;;17.80;;
10469;SDS011;5282;47.052;15.458;2024-03-02T08:23:41;26.27;;;18.00;;
10469;SDS011;5282;47.052;15.458;2024-03-02T08:26:09;27.07;;;18.53;;
10469;SDS011;5282;47.052;15.458;2024-03-02T08:28:36;26.80;;;18.43;;
10469;SDS011;5282;47.052;15.458;2024-03-02T08:31:05;25.13;;;17.47;;
10469;SDS011;5282;47.052;15.458;2024-03-02T08:33:32;23.77;;;16.67;;
10469;SDS011;5282;47.052;15.458;2024-03-02T08:36:03;27.07;;;17.43;;
10469;SDS011;5282;47.052;15.458;2024-03-02T08:38:31;26.83;;;17.83;;
10469;SDS011;5282;47.052;15.458;2024-03-02T08:40:58;23.27;;;16.80;;
10469;SDS011;5282;47.052;15.458;2024-03-02T08:43:25;24.90;;;17.23;;
10469;SDS011;5282;47.052;15.458;2024-03-02T08:45:52;23.40;;;16.90;;
10469;SDS011;5282;47.052;15.458;2024-03-02T08:48:19;23.93;;;16.93;;
10469;SDS011;5282;47.052;15.458;2024-03-02T08:50:46;22.47;;;15.90;;
10469;SDS011;5282;47.052;15.458;2024-03-02T08:53:14;25.27;;;16.80;;
10469;SDS011;5282;47.052;15.458;2024-03-02T08:55:44;22.47;;;15.97;;
10469;SDS011;5282;47.052;15.458;2024-03-02T08:58:11;23.03;;;15.80;;
10469;SDS011;5282;47.052;15.458;2024-03-02T09:00:38;18.90;;;15.50;;
10469;SDS011;5282;47.052;15.458;2024-03-02T09:03:06;22.87;;;16.43;;
10469;SDS011;5282;47.052;15.458;2024-03-02T09:05:33;19.80;;;15.03;;
10469;SDS011;5282;47.052;15.458;2024-03-02T09:07:59;21.47;;;15.97;;
10469;SDS011;5282;47.052;15.458;2024-03-02T09:10:29;23.37;;;15.07;;
10469;SDS011;5282;47.052;15.458;2024-03-02T09:12:56;21.07;;;14.90;;
10469;SDS011;5282;47.052;15.458;2024-03-02T09:15:23;19.93;;;15.17;;
10469;SDS011;5282;47.052;15.458;2024-03-02T09:17:50;19.40;;;15.23;;
10469;SDS011;5282;47.052;15.458;2024-03-02T09:20:17;20.03;;;14.43;;
10469;SDS011;5282;47.052;15.458;2024-03-02T09:22:44;19.73;;;14.57;;
10469;SDS011;5282;47.052;15.458;2024-03-02T09:25:12;21.27;;;15.30;;
10469;SDS011;5282;47.052;15.458;2024-03-02T09:27:40;20.57;;;15.23;;
10469;SDS011;5282;47.052;15.458;2024-03-02T09:30:08;24.00;;;15.80;;
10469;SDS011;5282;47.052;15.458;2024-03-02T09:32:35;19.80;;;15.07;;
10469;SDS011;5282;47.052;15.458;2024-03-02T09:35:03;17.43;;;14.33;;
10469;SDS011;5282;47.052;15.458;2024-03-02T09:37:31;19.00;;;15.10;;
10469;SDS011;5282;47.052;15.458;2024-03-02T09:39:58;23.40;;;15.20;;
10469;SDS011;5282;47.052;15.458;2024-03-02T09:42:25;23.10;;;14.83;;
10469;SDS011;5282;47.052;15.458;2024-03-02T09:44:54;19.80;;;14.80;;
10469;SDS011;5282;47.052;15.458;2024-03-02T09:47:21;19.80;;;14.33;;
10469;SDS011;5282;47.052;15.458;2024-03-02T09:49:48;16.87;;;13.70;;
10469;SDS011;5282;47.052;15.458;2024-03-02T09:52:15;17.50;;;14.30;;
10469;SDS011;5282;47.052;15.458;2024-03-02T09:54:42;18.40;;;14.13;;
10469;SDS011;5282;47.052;15.458;2024-03-02T09:57:09;18.23;;;14.23;;
10469;SDS011;5282;47.052;15.458;2024-03-02T09:59:36;19.07;;;14.90;;
10469;SDS011;5282;47.052;15.458;2024-03-02T10:02:04;17.67;;;13.77;;
10469;SDS011;5282;47.052;15.458;2024-03-02T10:04:32;19.37;;;14.83;;
10469;SDS011;5282;47.052;15.458;2024-03-02T10:07:10;18.33;;;14.10;;
10469;SDS011;5282;47.052;15.458;2024-03-02T10:09:39;18.73;;;14.60;;
10469;SDS011;5282;47.052;15.458;2024-03-02T10:12:06;18.63;;;14.87;;
10469;SDS011;5282;47.052;15.458;2024-03-02T10:14:34;17.67;;;14.00;;
10469;SDS011;5282;47.052;15.458;2024-03-02T10:17:01;18.97;;;14.37;;
10469;SDS011;5282;47.052;15.458;2024-03-02T10:19:31;18.97;;;14.07;;
10469;SDS011;5282;47.052;15.458;2024-03-02T10:22:00;17.93;;;14.30;;
10469;SDS011;5282;47.052;15.458;2024-03-02T10:24:34;17.57;;;13.43;;
10469;SDS011;5282;47.052;15.458;2024-03-02T10:27:07;16.13;;;13.57;;
10469;SDS011;5282;47.052;15.458;2024-03-02T10:29:38;16.50;;;12.80;;
10469;SDS011;5282;47.052;15.458;2024-03-02T10:32:08;16.10;;;12.93;;
10469;SDS011;5282;47.052;15.458;2024-03-02T10:34:39;15.73;;;12.90;;
10469;SDS011;5282;47.052;15.458;2024-03-02T10:37:06;15.47;;;12.43;;
10469;SDS011;5282;47.052;15.458;2024-03-02T10:39:34;18.47;;;12.73;;
10469;SDS011;5282;47.052;15.458;2024-03-02T10:42:02;13.80;;;12.27;;
10469;SDS011;5282;47.052;15.458;2024-03-02T10:44:30;13.83;;;12.43;;
10469;SDS011;5282;47.052;15.458;2024-03-02T10:46:58;12.67;;;11.30;;
10469;SDS011;5282;47.052;15.458;2024-03-02T10:49:27;14.27;;;12.13;;
10469;SDS011;5282;47.052;15.458;2024-03-02T10:51:57;13.50;;;12.10;;
10469;SDS011;5282;47.052;15.458;2024-03-02T10:54:24;13.03;;;11.13;;
10469;SDS011;5282;47.052;15.458;2024-03-02T10:56:58;13.33;;;11.93;;
10469;SDS011;5282;47.052;15.458;2024-03-02T10:59:27;12.47;;;11.17;;
10469;SDS011;5282;47.052;15.458;2024-03-02T11:01:59;12.27;;;11.03;;
10469;SDS011;5282;47.052;15.458;2024-03-02T11:04:27;14.23;;;10.67;;
10469;SDS011;5282;47.052;15.458;2024-03-02T11:06:59;12.67;;;11.27;;
10469;SDS011;5282;47.052;15.458;2024-03-02T11:09:32;11.33;;;10.23;;
10469;SDS011;5282;47.052;15.458;2024-03-02T11:12:02;11.73;;;10.50;;
10469;SDS011;5282;47.052;15.458;2024-03-02T11:14:32;13.87;;;10.90;;
10469;SDS011;5282;47.052;15.458;2024-03-02T11:17:02;11.33;;;10.23;;
10469;SDS011;5282;47.052;15.458;2024-03-02T11:19:30;12.73;;;10.37;;
10469;SDS011;5282;47.052;15.458;2024-03-02T11:21:58;12.13;;;10.27;;
10469;SDS011;5282;47.052;15.458;2024-03-02T11:24:31;11.67;;;10.47;;
10469;SDS011;5282;47.052;15.458;2024-03-02T11:26:59;11.53;;;10.33;;
10469;SDS011;5282;47.052;15.458;2024-03-02T11:29:42;12.33;;;11.00;;
10469;SDS011;5282;47.052;15.458;2024-03-02T11:32:13;11.47;;;10.27;;
10469;SDS011;5282;47.052;15.458;2024-03-02T11:34:42;12.13;;;10.87;;
10469;SDS011;5282;47.052;15.458;2024-03-02T11:37:12;12.10;;;10.67;;
10469;SDS011;5282;47.052;15.458;2024-03-02T11:39:41;12.57;;;10.63;;
10469;SDS011;5282;47.052;15.458;2024-03-02T11:42:09;11.67;;;10.40;;
10469;SDS011;5282;47.052;15.458;2024-03-02T11:44:39;12.63;;;9.73;;
10469;SDS011;5282;47.052;15.458;2024-03-02T11:47:10;10.27;;;9.27;;
10469;SDS011;5282;47.052;15.458;2024-03-02T11:49:40;9.67;;;8.67;;
10469;SDS011;5282;47.052;15.458;2024-03-02T11:52:08;9.33;;;8.27;;
10469;SDS011;5282;47.052;15.458;2024-03-02T11:54:37;9.80;;;7.90;;
10469;SDS011;5282;47.052;15.458;2024-03-02T11:57:07;8.43;;;7.60;;
10469;SDS011;5282;47.052;15.458;2024-03-02T11:59:34;8.53;;;7.77;;
10469;SDS011;5282;47.052;15.458;2024-03-02T12:02:01;10.30;;;7.93;;
10469;SDS011;5282;47.052;15.458;2024-03-02T12:04:29;10.83;;;8.33;;
10469;SDS011;5282;47.052;15.458;2024-03-02T12:06:58;8.37;;;7.67;;
10469;SDS011;5282;47.052;15.458;2024-03-02T12:09:26;8.23;;;7.43;;
10469;SDS011;5282;47.052;15.458;2024-03-02T12:12:20;7.80;;;7.20;;
10469;SDS011;5282;47.052;15.458;2024-03-02T12:15:10;7.77;;;6.97;;
10469;SDS011;5282;47.052;15.458;2024-03-02T12:17:59;9.27;;;7.70;;
10469;SDS011;5282;47.052;15.458;2024-03-02T12:20:28;7.83;;;7.23;;
10469;SDS011;5282;47.052;15.458;2024-03-02T12:22:56;7.70;;;7.00;;
10469;SDS011;5282;47.052;15.458;2024-03-02T12:25:28;8.00;;;7.20;;
10469;SDS011;5282;47.052;15.458;2024-03-02T12:27:58;7.33;;;6.80;;
10469;SDS011;5282;47.052;15.458;2024-03-02T12:30:32;7.87;;;6.50;;
10469;SDS011;5282;47.052;15.458;2024-03-02T12:33:02;6.13;;;5.63;;
10469;SDS011;5282;47.052;15.458;2024-03-02T12:35:29;7.50;;;6.73;;
10469;SDS011;5282;47.052;15.458;2024-03-02T12:37:57;9.30;;;7.17;;
10469;SDS011;5282;47.052;15.458;2024-03-02T12:40:24;6.70;;;6.10;;
10469;SDS011;5282;47.052;15.458;2024-03-02T12:42:52;6.17;;;5.77;;
10469;SDS011;5282;47.052;15.458;2024-03-02T12:45:20;6.40;;;5.47;;
10469;SDS011;5282;47.052;15.458;2024-03-02T12:47:50;6.10;;;5.80;;
10469;SDS011;5282;47.052;15.458;2024-03-02T12:50:18;6.33;;;5.93;;
10469;SDS011;5282;47.052;15.458;2024-03-02T12:52:50;6.23;;;5.73;;
10469;SDS011;5282;47.052;15.458;2024-03-02T12:55:19;5.37;;;5.07;;
10469;SDS011;5282;47.052;15.458;2024-03-02T12:57:46;5.37;;;4.47;;
10469;SDS011;5282;47.052;15.458;2024-03-02T13:00:14;5.43;;;5.13;;
10469;SDS011;5282;47.052;15.458;2024-03-02T13:02:42;5.53;;;5.13;;
10469;SDS011;5282;47.052;15.458;2024-03-02T13:05:09;5.23;;;4.93;;
10469;SDS011;5282;47.052;15.458;2024-03-02T13:07:36;5.57;;;5.17;;
10469;SDS011;5282;47.052;15.458;2024-03-02T13:10:04;5.57;;;5.17;;
10469;SDS011;5282;47.052;15.458;2024-03-02T13:12:32;4.93;;;4.63;;
10469;SDS011;5282;47.052;15.458;2024-03-02T13:14:59;6.10;;;5.70;;
10469;SDS011;5282;47.052;15.458;2024-03-02T13:17:27;5.63;;;5.23;;
10469;SDS011;5282;47.052;15.458;2024-03-02T13:19:56;5.37;;;5.07;;
10469;SDS011;5282;47.052;15.458;2024-03-02T13:22:24;5.57;;;5.20;;
10469;SDS011;5282;47.052;15.458;2024-03-02T13:24:52;5.23;;;4.90;;
10469;SDS011;5282;47.052;15.458;2024-03-02T13:27:20;5.63;;;5.23;;
10469;SDS011;5282;47.052;15.458;2024-03-02T13:29:47;5.23;;;4.83;;
10469;SDS011;5282;47.052;15.458;2024-03-02T13:32:16;5.70;;;5.30;;
10469;SDS011;5282;47.052;15.458;2024-03-02T13:34:46;5.50;;;5.00;;
10469;SDS011;5282;47.052;15.458;2024-03-02T13:37:14;5.60;;;5.20;;
10469;SDS011;5282;47.052;15.458;2024-03-02T13:39:41;5.37;;;4.97;;
10469;SDS011;5282;47.052;15.458;2024-03-02T13:42:08;6.27;;;5.77;;
10469;SDS011;5282;47.052;15.458;2024-03-02T13:44:36;6.10;;;5.50;;
10469;SDS011;5282;47.052;15.458;2024-03-02T13:47:03;6.20;;;5.60;;
10469;SDS011;5282;47.052;15.458;2024-03-02T13:49:30;5.63;;;5.13;;
10469;SDS011;5282;47.052;15.458;2024-03-02T13:52:02;6.40;;;5.80;;
10469;SDS011;5282;47.052;15.458;2024-03-02T13:54:37;5.23;;;4.87;;
10469;SDS011;5282;47.052;15.458;2024-03-02T13:57:05;5.80;;;5.43;;
10469;SDS011;5282;47.052;15.458;2024-03-02T13:59:33;5.30;;;5.00;;
10469;SDS011;5282;47.052;15.458;2024-03-02T14:02:00;5.63;;;5.23;;
10469;SDS011;5282;47.052;15.458;2024-03-02T14:04:29;5.77;;;5.20;;
10469;SDS011;5282;47.052;15.458;2024-03-02T14:06:57;5.63;;;5.17;;
10469;SDS011;5282;47.052;15.458;2024-03-02T14:09:23;5.27;;;4.93;;
10469;SDS011;5282;47.052;15.458;2024-03-02T14:11:52;5.47;;;5.17;;
10469;SDS011;5282;47.052;15.458;2024-03-02T14:14:19;7.10;;;6.50;;
10469;SDS011;5282;47.052;15.458;2024-03-02T14:16:46;6.77;;;6.27;;
10469;SDS011;5282;47.052;15.458;2024-03-02T14:19:12;6.63;;;6.13;;
10469;SDS011;5282;47.052;15.458;2024-03-02T14:21:39;6.93;;;6.47;;
10469;SDS011;5282;47.052;15.458;2024-03-02T14:24:06;7.00;;;6.30;;
10469;SDS011;5282;47.052;15.458;2024-03-02T14:26:34;8.93;;;7.73;;
10469;SDS011;5282;47.052;15.458;2024-03-02T14:29:03;8.53;;;7.83;;
10469;SDS011;5282;47.052;15.458;2024-03-02T14:31:31;8.80;;;8.07;;
10469;SDS011;5282;47.052;15.458;2024-03-02T14:33:59;8.47;;;7.70;;
10469;SDS011;5282;47.052;15.458;2024-03-02T14:36:26;9.83;;;7.70;;
10469;SDS011;5282;47.052;15.458;2024-03-02T14:38:53;9.20;;;7.70;;
10469;SDS011;5282;47.052;15.458;2024-03-02T14:41:21;8.07;;;7.27;;